This is the latest recevied weather packets stored in our database for station/object R6DH-11. If no packets are shown the sender has not sent any weather packets the latest 10 day(s).
| Time | Temp. | Humidity | Pressure | Rain* | Wind** | Luminosity | Snow |
|---|---|---|---|---|---|---|---|
| 1778038283 | 8.89° C | 80% | 1013.7 hPa | - | - | - | - |
| 1778037380 | 8.89° C | 81% | 1013.5 hPa | - | - | - | - |
| 1778036518 | 7.78° C | 81% | 1013.3 hPa | - | - | - | - |
| 1778035617 | 8.33° C | 81% | 1013 hPa | - | - | - | - |
| 1778034715 | 8.33° C | 81% | 1012.8 hPa | - | - | - | - |
| 1778033813 | 8.33° C | 81% | 1012.8 hPa | - | - | - | - |
| 1778032912 | 7.22° C | 82% | 1012.5 hPa | - | - | - | - |
| 1778032010 | 7.22° C | 81% | 1012.4 hPa | - | - | - | - |
| 1778031109 | 7.22° C | 81% | 1012.4 hPa | - | - | - | - |
| 1778030207 | 7.78° C | 80% | 1012.5 hPa | - | - | - | - |
| 1778029312 | 7.78° C | 81% | 1012.5 hPa | - | - | - | - |
| 1778028404 | 7.78° C | 81% | 1012.5 hPa | - | - | - | - |
| 1778027502 | 7.78° C | 80% | 1012.6 hPa | - | - | - | - |
| 1778026601 | 7.78° C | 81% | 1012.5 hPa | - | - | - | - |
| 1778025699 | 7.78° C | 80% | 1012.4 hPa | - | - | - | - |
| 1778024798 | 6.67° C | 80% | 1011.3 hPa | - | - | - | - |
| 1778023897 | 7.78° C | 80% | 1012.4 hPa | - | - | - | - |
| 1778022994 | 7.78° C | 80% | 1012.4 hPa | - | - | - | - |
| 1778022093 | 7.78° C | 79% | 1012.3 hPa | - | - | - | - |
| 1778021191 | 7.22° C | 79% | 1012.4 hPa | - | - | - | - |
| 1778020290 | 7.78° C | 80% | 1012.4 hPa | - | - | - | - |
| 1778019388 | 7.78° C | 79% | 1012.5 hPa | - | - | - | - |
| 1778018487 | 8.33° C | 77% | 1012.5 hPa | - | - | - | - |
| 1778017587 | 9.44° C | 77% | 1012.6 hPa | - | - | - | - |
| 1778016684 | 8.89° C | 76% | 1012.6 hPa | - | - | - | - |
* Rain since midnight (hover to see other rain measurements)
** Current wind speed in m/s (hover to see current wind gust speed)